createdAt,value
2022-11-29T00:01:09.919Z,18.75
2022-11-29T00:03:37.359Z,19.75
2022-11-29T00:06:04.775Z,20.55
2022-11-29T00:08:30.995Z,21.17
2022-11-29T00:10:57.242Z,19.45
2022-11-29T00:13:23.450Z,19.10
2022-11-29T00:15:49.658Z,19.88
2022-11-29T00:18:15.913Z,20.65
2022-11-29T00:20:42.147Z,19.80
2022-11-29T00:23:08.443Z,19.52
2022-11-29T00:25:34.713Z,21.30
2022-11-29T00:28:00.937Z,18.70
2022-11-29T00:30:27.609Z,20.98
2022-11-29T00:32:53.916Z,20.88
2022-11-29T00:35:20.131Z,22.30
2022-11-29T00:37:46.359Z,21.80
2022-11-29T00:40:12.772Z,24.83
2022-11-29T00:42:39.010Z,27.88
2022-11-29T00:45:05.447Z,21.88
2022-11-29T00:47:31.675Z,22.52
2022-11-29T00:49:57.944Z,22.02
2022-11-29T00:52:24.164Z,25.27
2022-11-29T00:54:50.365Z,23.58
2022-11-29T00:57:16.608Z,21.63
2022-11-29T00:59:42.820Z,23.75
2022-11-29T01:02:09.080Z,22.35
2022-11-29T01:04:35.335Z,21.42
2022-11-29T01:07:01.568Z,25.17
2022-11-29T01:09:27.819Z,24.75
2022-11-29T01:11:54.044Z,23.45
2022-11-29T01:14:20.266Z,23.17
2022-11-29T01:16:46.569Z,23.17
2022-11-29T01:19:12.807Z,26.02
2022-11-29T01:21:39.102Z,22.30
2022-11-29T01:24:05.457Z,24.23
2022-11-29T01:26:32.022Z,22.30
2022-11-29T01:28:58.788Z,23.98
2022-11-29T01:31:36.271Z,27.05
2022-11-29T01:36:29.087Z,23.52
2022-11-29T01:38:55.362Z,22.63
2022-11-29T01:41:24.173Z,23.80
2022-11-29T01:44:05.548Z,32.85
2022-11-29T01:46:33.534Z,24.83
2022-11-29T01:49:03.462Z,23.17
2022-11-29T01:51:30.196Z,24.13
2022-11-29T01:53:56.566Z,26.45
2022-11-29T01:56:24.022Z,23.83
2022-11-29T01:58:50.846Z,23.83
2022-11-29T02:01:17.132Z,25.83
2022-11-29T02:03:43.398Z,23.77
2022-11-29T02:06:09.760Z,25.05
2022-11-29T02:08:41.068Z,23.10
2022-11-29T02:11:32.367Z,25.35
2022-11-29T02:14:10.617Z,26.05
2022-11-29T02:16:51.091Z,25.17
2022-11-29T02:19:33.413Z,27.70
2022-11-29T02:22:07.519Z,23.55
2022-11-29T02:24:43.173Z,23.65
2022-11-29T02:27:24.858Z,22.02
2022-11-29T02:29:51.047Z,20.80
2022-11-29T02:32:42.155Z,21.90
2022-11-29T02:35:14.537Z,21.58
2022-11-29T02:37:47.814Z,21.38
2022-11-29T02:40:14.008Z,21.42
2022-11-29T02:42:55.724Z,22.52
2022-11-29T02:45:22.522Z,21.08
2022-11-29T02:47:59.856Z,21.83
2022-11-29T02:50:40.896Z,24.00
2022-11-29T02:53:25.888Z,21.73
2022-11-29T02:55:55.066Z,20.20
2022-11-29T02:58:27.548Z,24.08
2022-11-29T03:01:11.167Z,19.92
2022-11-29T03:03:43.413Z,20.05
2022-11-29T03:06:15.889Z,21.48
2022-11-29T03:08:42.183Z,20.83
2022-11-29T03:11:26.932Z,21.50
2022-11-29T03:14:12.153Z,21.00
2022-11-29T03:16:44.810Z,21.05
2022-11-29T03:19:30.013Z,20.58
2022-11-29T03:21:56.332Z,20.73
2022-11-29T03:24:29.914Z,20.73
2022-11-29T03:27:01.418Z,19.92
2022-11-29T03:29:32.559Z,18.90
2022-11-29T03:32:09.534Z,18.48
2022-11-29T03:34:57.345Z,21.40
2022-11-29T03:39:56.665Z,19.77
2022-11-29T03:42:25.687Z,17.52
2022-11-29T03:44:55.494Z,19.02
2022-11-29T03:47:28.201Z,17.98
2022-11-29T03:49:56.832Z,19.30
2022-11-29T03:52:26.555Z,18.60
2022-11-29T03:54:52.774Z,19.15
2022-11-29T03:57:23.473Z,21.00
2022-11-29T04:00:05.468Z,23.52
2022-11-29T04:02:31.772Z,22.23
2022-11-29T04:05:18.595Z,20.05
2022-11-29T04:08:00.871Z,21.98
2022-11-29T04:10:27.137Z,23.75
2022-11-29T04:12:59.578Z,23.40
2022-11-29T04:15:34.787Z,23.42
2022-11-29T04:18:10.202Z,26.55
2022-11-29T04:20:52.937Z,28.05
2022-11-29T04:23:38.317Z,28.15
2022-11-29T04:26:19.726Z,31.70
2022-11-29T04:29:01.212Z,24.02
2022-11-29T04:32:06.026Z,32.08
2022-11-29T04:34:44.555Z,28.75
2022-11-29T04:37:26.332Z,24.30
2022-11-29T04:40:21.872Z,28.08
2022-11-29T04:42:48.105Z,23.98
2022-11-29T04:45:26.359Z,24.77
2022-11-29T04:47:58.055Z,21.40
2022-11-29T04:50:32.735Z,21.15
2022-11-29T04:53:08.097Z,23.08
2022-11-29T04:55:37.375Z,20.75
2022-11-29T04:58:12.526Z,22.02
2022-11-29T05:00:43.313Z,22.45
2022-11-29T05:03:31.241Z,19.42
2022-11-29T05:06:02.719Z,19.88
2022-11-29T05:08:28.922Z,20.05
2022-11-29T05:10:55.183Z,18.70
2022-11-29T05:13:24.507Z,20.23
2022-11-29T05:16:03.005Z,20.35
2022-11-29T05:18:47.506Z,27.20
2022-11-29T05:21:18.153Z,43.22
2022-11-29T05:23:53.733Z,21.20
2022-11-29T05:26:26.079Z,23.80
2022-11-29T05:28:52.266Z,21.00
2022-11-29T05:31:28.613Z,22.02
2022-11-29T05:34:10.220Z,20.27
2022-11-29T05:36:48.759Z,22.75
2022-11-29T05:39:30.414Z,20.23
2022-11-29T05:42:02.613Z,20.58
2022-11-29T05:44:28.851Z,22.52
2022-11-29T05:46:59.367Z,23.73
2022-11-29T05:49:31.018Z,26.42
2022-11-29T05:51:57.216Z,50.42
2022-11-29T05:54:35.588Z,31.52
2022-11-29T05:57:04.791Z,23.45
2022-11-29T05:59:31.162Z,33.63
2022-11-29T06:02:16.456Z,24.90
2022-11-29T06:05:03.546Z,29.38
2022-11-29T06:07:48.432Z,23.20
2022-11-29T06:10:18.692Z,27.90
2022-11-29T06:13:03.450Z,27.70
2022-11-29T06:15:57.774Z,24.30
2022-11-29T06:18:24.042Z,32.60
2022-11-29T06:20:57.068Z,22.77
2022-11-29T06:23:29.656Z,21.48
2022-11-29T06:26:12.668Z,20.55
2022-11-29T06:28:54.146Z,20.02
2022-11-29T06:31:32.423Z,22.20
2022-11-29T06:34:02.364Z,26.73
2022-11-29T06:36:28.608Z,21.73
2022-11-29T06:38:54.893Z,24.05
2022-11-29T06:41:22.358Z,23.45
2022-11-29T06:43:48.894Z,26.27
2022-11-29T06:46:27.819Z,25.52
2022-11-29T06:49:02.594Z,27.05
2022-11-29T06:51:33.964Z,28.52
2022-11-29T06:54:08.805Z,24.60
2022-11-29T06:56:49.320Z,20.73
2022-11-29T06:59:15.535Z,21.45
2022-11-29T07:01:51.771Z,21.52
2022-11-29T07:04:29.806Z,22.02
2022-11-29T07:06:56.130Z,20.17
2022-11-29T07:09:25.527Z,21.40
2022-11-29T07:11:51.881Z,21.90
2022-11-29T07:14:18.216Z,23.73
2022-11-29T07:16:47.150Z,47.67
2022-11-29T07:19:36.689Z,26.05
2022-11-29T07:22:08.962Z,24.83
2022-11-29T07:24:41.805Z,22.73
2022-11-29T07:27:17.682Z,22.88
2022-11-29T07:29:59.006Z,25.08
2022-11-29T07:32:34.419Z,23.15
2022-11-29T07:35:00.765Z,25.13
2022-11-29T07:37:32.334Z,23.85
2022-11-29T07:40:10.887Z,23.13
2022-11-29T07:42:46.572Z,23.73
2022-11-29T07:45:19.314Z,24.10
2022-11-29T07:47:46.199Z,24.65
2022-11-29T07:52:38.682Z,22.42
2022-11-29T07:55:05.404Z,23.23
2022-11-29T07:57:31.678Z,25.55
2022-11-29T07:59:57.884Z,20.60
2022-11-29T08:02:30.845Z,20.67
2022-11-29T08:04:57.303Z,22.60
2022-11-29T08:07:23.783Z,21.05
2022-11-29T08:09:50.050Z,18.88
2022-11-29T08:12:16.288Z,18.55
2022-11-29T08:14:43.370Z,17.30
2022-11-29T08:17:09.798Z,18.75
2022-11-29T08:19:37.845Z,16.77
2022-11-29T08:22:04.098Z,17.27
2022-11-29T08:24:30.403Z,16.90
2022-11-29T08:26:56.614Z,16.27
2022-11-29T08:29:23.586Z,15.90
2022-11-29T08:34:16.096Z,16.35
2022-11-29T08:36:42.306Z,16.63
2022-11-29T08:39:09.721Z,17.00
2022-11-29T08:41:36.105Z,16.90
2022-11-29T08:44:02.401Z,17.90
2022-11-29T08:46:48.599Z,18.40
2022-11-29T08:49:14.896Z,19.08
2022-11-29T08:51:41.105Z,18.30
2022-11-29T08:54:07.686Z,18.80
2022-11-29T08:59:21.969Z,17.63
2022-11-29T09:01:48.196Z,17.17
2022-11-29T09:04:14.609Z,17.27
2022-11-29T09:06:44.275Z,21.63
2022-11-29T09:09:10.489Z,19.33
2022-11-29T09:11:36.890Z,19.73
2022-11-29T09:14:05.339Z,21.35
2022-11-29T09:16:34.260Z,18.10
2022-11-29T09:19:00.873Z,17.20
2022-11-29T09:21:28.704Z,17.58
2022-11-29T09:23:59.043Z,26.00
2022-11-29T09:26:30.061Z,21.98
2022-11-29T09:28:58.076Z,20.65
2022-11-29T09:31:24.441Z,23.80
2022-11-29T09:33:50.760Z,42.55
2022-11-29T09:36:17.008Z,26.38
2022-11-29T09:38:43.242Z,19.30
2022-11-29T09:41:33.008Z,25.15
2022-11-29T09:44:05.298Z,19.70
2022-11-29T09:46:50.487Z,22.15
2022-11-29T09:49:42.224Z,21.30
2022-11-29T09:52:35.104Z,19.60
2022-11-29T09:55:13.402Z,20.60
2022-11-29T09:57:40.128Z,20.15
2022-11-29T10:00:10.852Z,21.30
2022-11-29T10:02:37.118Z,21.08
2022-11-29T10:05:08.333Z,17.90
2022-11-29T10:07:40.723Z,16.05
2022-11-29T10:10:09.248Z,14.73
2022-11-29T10:12:45.544Z,14.63
2022-11-29T10:15:25.704Z,14.82
2022-11-29T10:17:55.576Z,16.23
2022-11-29T10:20:26.326Z,15.68
2022-11-29T10:22:54.387Z,15.98
2022-11-29T10:25:33.116Z,21.40
2022-11-29T10:27:59.446Z,20.52
2022-11-29T10:30:25.897Z,16.65
2022-11-29T10:32:56.311Z,17.23
2022-11-29T10:35:22.901Z,34.53
2022-11-29T10:38:28.646Z,23.40
2022-11-29T10:40:41.406Z,37.28
2022-11-29T10:43:08.976Z,22.60
2022-11-29T10:45:38.967Z,18.20
2022-11-29T10:48:11.187Z,14.65
2022-11-29T10:50:39.757Z,15.65
2022-11-29T10:53:08.532Z,14.10
2022-11-29T10:55:38.474Z,15.52
2022-11-29T10:58:12.165Z,15.00
2022-11-29T11:00:45.500Z,17.15
2022-11-29T11:03:25.582Z,20.48
2022-11-29T11:06:06.248Z,22.70
2022-11-29T11:08:33.069Z,20.38
2022-11-29T11:11:02.072Z,20.98
2022-11-29T11:13:29.637Z,20.52
2022-11-29T11:16:15.707Z,16.05
2022-11-29T11:18:42.109Z,23.38
2022-11-29T11:21:10.296Z,32.88
2022-11-29T11:23:42.755Z,27.33
2022-11-29T11:26:11.230Z,22.63
2022-11-29T11:28:46.739Z,19.35
2022-11-29T11:31:13.742Z,14.73
2022-11-29T11:33:43.665Z,16.85
2022-11-29T11:36:14.279Z,18.35
2022-11-29T11:38:50.954Z,18.30
2022-11-29T11:41:20.354Z,18.87
2022-11-29T11:43:51.216Z,31.73
2022-11-29T11:46:18.275Z,27.13
2022-11-29T11:48:44.712Z,24.02
2022-11-29T11:51:20.069Z,19.98
2022-11-29T11:53:49.091Z,20.15
2022-11-29T11:56:15.939Z,29.58
2022-11-29T11:58:48.019Z,44.20
2022-11-29T12:01:14.251Z,41.47
2022-11-29T12:03:43.355Z,24.48
2022-11-29T12:06:30.177Z,23.33
2022-11-29T12:09:19.450Z,22.15
2022-11-29T12:11:53.061Z,21.77
2022-11-29T12:14:31.852Z,21.65
2022-11-29T12:17:36.650Z,19.05
2022-11-29T12:20:10.089Z,26.25
2022-11-29T12:22:47.932Z,22.23
2022-11-29T12:25:18.442Z,20.00
2022-11-29T12:27:44.808Z,18.88
2022-11-29T12:30:12.505Z,22.30
2022-11-29T12:32:49.613Z,22.33
2022-11-29T12:35:48.201Z,21.83
2022-11-29T12:38:37.177Z,22.85
2022-11-29T12:41:06.274Z,49.65
2022-11-29T12:43:45.291Z,55.65
2022-11-29T12:46:20.660Z,39.25
2022-11-29T12:48:51.680Z,23.20
2022-11-29T12:51:32.254Z,23.42
2022-11-29T12:54:17.032Z,23.15
2022-11-29T12:56:47.597Z,23.27
2022-11-29T12:59:32.302Z,23.60
2022-11-29T13:02:17.382Z,22.05
2022-11-29T13:05:19.219Z,21.63
2022-11-29T13:07:57.609Z,20.20
2022-11-29T13:10:36.325Z,17.98
2022-11-29T13:13:20.274Z,30.75
2022-11-29T13:15:50.612Z,25.75
2022-11-29T13:18:30.462Z,23.52
2022-11-29T13:21:02.776Z,20.73
2022-11-29T13:23:52.963Z,17.33
2022-11-29T13:26:18.393Z,17.80
2022-11-29T13:28:46.439Z,16.52
2022-11-29T13:31:15.353Z,18.40
2022-11-29T13:33:56.881Z,18.23
2022-11-29T13:36:23.070Z,18.33
2022-11-29T13:38:59.144Z,17.98
2022-11-29T13:41:36.451Z,17.13
2022-11-29T13:44:19.202Z,18.52
2022-11-29T13:46:50.415Z,18.10
2022-11-29T13:49:21.625Z,17.38
2022-11-29T13:51:47.895Z,17.13
2022-11-29T13:54:26.744Z,17.95
2022-11-29T13:57:09.080Z,16.70
2022-11-29T13:59:45.807Z,17.48
2022-11-29T14:02:27.183Z,17.90
2022-11-29T14:04:53.452Z,21.35
2022-11-29T14:07:19.960Z,19.10
2022-11-29T14:09:50.962Z,19.40
2022-11-29T14:12:39.171Z,19.50
2022-11-29T14:15:11.331Z,20.85
2022-11-29T14:17:51.583Z,18.92
2022-11-29T14:20:23.729Z,19.30
2022-11-29T14:23:13.003Z,19.80
2022-11-29T14:26:02.007Z,23.40
2022-11-29T14:28:34.936Z,20.75
2022-11-29T14:31:02.157Z,29.73
2022-11-29T14:33:40.630Z,31.23
2022-11-29T14:36:06.853Z,28.58
2022-11-29T14:38:33.040Z,22.17
2022-11-29T14:41:02.957Z,22.27
2022-11-29T14:43:32.442Z,21.80
2022-11-29T14:46:08.830Z,20.63
2022-11-29T14:48:35.541Z,22.13
2022-11-29T14:51:18.570Z,22.90
2022-11-29T14:53:45.885Z,22.90
2022-11-29T14:56:38.936Z,23.15
2022-11-29T14:59:24.056Z,29.38
2022-11-29T15:01:50.400Z,29.27
2022-11-29T15:04:16.727Z,24.13
2022-11-29T15:06:47.424Z,28.85
2022-11-29T15:09:19.991Z,29.75
2022-11-29T15:12:05.015Z,26.80
2022-11-29T15:14:41.476Z,30.92
2022-11-29T15:17:15.176Z,26.40
2022-11-29T15:19:57.648Z,24.65
2022-11-29T15:22:38.602Z,28.77
2022-11-29T15:25:10.707Z,25.60
2022-11-29T15:27:40.190Z,27.63
2022-11-29T15:30:25.775Z,30.27
2022-11-29T15:32:52.059Z,29.17
2022-11-29T15:35:18.835Z,29.08
2022-11-29T15:37:46.199Z,24.77
2022-11-29T15:40:23.343Z,24.08
2022-11-29T15:42:52.682Z,25.60
2022-11-29T15:45:30.260Z,37.08
2022-11-29T15:48:11.095Z,33.95
2022-11-29T15:50:37.583Z,36.22
2022-11-29T15:53:06.170Z,34.90
2022-11-29T15:55:33.096Z,34.10
2022-11-29T16:00:31.378Z,29.48
2022-11-29T16:03:01.954Z,30.15
2022-11-29T16:05:36.445Z,27.95
2022-11-29T16:08:08.192Z,26.25
2022-11-29T16:10:36.006Z,29.27
2022-11-29T16:13:04.532Z,27.55
2022-11-29T16:15:35.495Z,29.95
2022-11-29T16:18:12.450Z,28.50
2022-11-29T16:20:38.709Z,27.63
2022-11-29T16:23:07.677Z,23.48
2022-11-29T16:25:37.658Z,23.75
2022-11-29T16:28:05.851Z,27.40
2022-11-29T16:30:32.202Z,23.27
2022-11-29T16:32:59.874Z,25.45
2022-11-29T16:35:27.501Z,24.75
2022-11-29T16:37:54.087Z,25.95
2022-11-29T16:40:25.422Z,28.92
2022-11-29T16:43:03.689Z,29.27
2022-11-29T16:45:34.451Z,30.52
2022-11-29T16:48:02.621Z,30.35
2022-11-29T16:50:29.885Z,29.15
2022-11-29T16:52:57.097Z,27.33
2022-11-29T16:55:23.832Z,27.30
2022-11-29T16:57:50.181Z,27.65
2022-11-29T17:00:22.558Z,24.65
2022-11-29T17:02:48.885Z,25.05
2022-11-29T17:05:15.184Z,24.10
2022-11-29T17:07:41.905Z,24.92
2022-11-29T17:10:11.719Z,23.75
2022-11-29T17:12:37.934Z,25.75
2022-11-29T17:15:04.373Z,27.65
2022-11-29T17:17:31.213Z,28.42
2022-11-29T17:19:57.555Z,27.42
2022-11-29T17:22:23.851Z,27.02
2022-11-29T17:24:50.556Z,25.55
2022-11-29T17:27:17.042Z,25.83
2022-11-29T17:29:43.261Z,29.02
2022-11-29T17:32:09.549Z,31.58
2022-11-29T17:34:35.880Z,32.20
2022-11-29T17:37:02.134Z,38.03
2022-11-29T17:39:28.412Z,37.47
2022-11-29T17:41:54.672Z,30.50
2022-11-29T17:44:20.889Z,27.25
2022-11-29T17:46:47.135Z,31.50
2022-11-29T17:49:13.428Z,24.70
2022-11-29T17:51:55.931Z,26.92
2022-11-29T17:54:22.689Z,24.45
2022-11-29T17:56:49.326Z,25.63
2022-11-29T17:59:15.590Z,25.50
2022-11-29T18:01:41.911Z,26.73
2022-11-29T18:04:08.329Z,31.98
2022-11-29T18:06:38.446Z,35.30
2022-11-29T18:09:05.461Z,38.75
2022-11-29T18:11:43.000Z,33.28
2022-11-29T18:14:13.602Z,43.83
2022-11-29T18:16:39.892Z,33.38
2022-11-29T18:19:07.991Z,44.72
2022-11-29T18:21:37.920Z,46.75
2022-11-29T18:24:05.059Z,61.67
2022-11-29T18:26:32.717Z,57.00
2022-11-29T18:28:59.332Z,43.47
2022-11-29T18:31:28.181Z,48.70
2022-11-29T18:33:59.021Z,40.58
2022-11-29T18:36:29.507Z,37.90
2022-11-29T18:39:00.034Z,34.58
2022-11-29T18:41:28.237Z,32.90
2022-11-29T18:43:58.832Z,28.27
2022-11-29T18:46:25.483Z,22.80
2022-11-29T18:48:51.958Z,26.50
2022-11-29T18:51:19.514Z,40.78
2022-11-29T18:53:46.245Z,28.33
2022-11-29T18:56:17.147Z,28.98
2022-11-29T18:58:44.089Z,26.75
2022-11-29T19:03:38.146Z,26.75
2022-11-29T19:06:05.804Z,32.05
2022-11-29T19:08:32.504Z,37.55
2022-11-29T19:10:58.873Z,40.97
2022-11-29T19:13:25.107Z,37.10
2022-11-29T19:15:52.346Z,48.28
2022-11-29T19:18:18.693Z,47.10
2022-11-29T19:20:44.918Z,45.17
2022-11-29T19:23:11.175Z,32.45
2022-11-29T19:25:37.409Z,28.52
2022-11-29T19:28:03.650Z,30.38
2022-11-29T19:30:30.944Z,27.95
2022-11-29T19:32:57.365Z,25.05
2022-11-29T19:35:23.629Z,35.05
2022-11-29T19:37:49.873Z,31.67
2022-11-29T19:40:16.155Z,27.48
2022-11-29T19:42:42.379Z,29.08
2022-11-29T19:45:18.553Z,25.70
2022-11-29T19:47:44.925Z,26.10
2022-11-29T19:50:11.196Z,25.83
2022-11-29T19:52:37.457Z,27.00
2022-11-29T19:55:03.742Z,24.88
2022-11-29T19:57:29.998Z,25.17
2022-11-29T19:59:56.237Z,24.80
2022-11-29T20:02:22.830Z,24.15
2022-11-29T20:04:49.660Z,31.50
2022-11-29T20:07:16.017Z,26.20
2022-11-29T20:09:42.389Z,27.55
2022-11-29T20:12:08.602Z,25.23
2022-11-29T20:14:34.888Z,23.63
2022-11-29T20:17:01.093Z,21.65
2022-11-29T20:19:27.310Z,19.17
2022-11-29T20:21:53.582Z,22.88
2022-11-29T20:24:19.902Z,22.38
2022-11-29T20:26:47.019Z,22.52
2022-11-29T20:29:14.025Z,25.35
2022-11-29T20:34:11.590Z,23.15
2022-11-29T20:36:44.011Z,25.75
2022-11-29T20:39:29.234Z,25.70
2022-11-29T20:42:14.251Z,25.08
2022-11-29T20:44:46.861Z,25.85
2022-11-29T20:47:15.424Z,26.17
2022-11-29T20:49:41.792Z,25.00
2022-11-29T20:52:10.966Z,24.50
2022-11-29T20:54:37.247Z,23.50
2022-11-29T20:57:03.455Z,26.25
2022-11-29T20:59:29.666Z,24.10
2022-11-29T21:01:57.391Z,25.08
2022-11-29T21:04:23.892Z,24.55
2022-11-29T21:06:50.124Z,24.35
2022-11-29T21:09:16.332Z,25.35
2022-11-29T21:11:42.605Z,25.60
2022-11-29T21:14:08.995Z,25.83
2022-11-29T21:16:35.298Z,24.38
2022-11-29T21:19:02.144Z,24.38
2022-11-29T21:21:32.335Z,24.70
2022-11-29T21:23:58.523Z,26.40
2022-11-29T21:26:28.184Z,27.42
2022-11-29T21:29:04.543Z,26.08
2022-11-29T21:31:30.989Z,25.83
2022-11-29T21:33:57.352Z,26.70
2022-11-29T21:36:23.601Z,25.20
2022-11-29T21:38:54.847Z,26.67
2022-11-29T21:41:21.582Z,24.20
2022-11-29T21:44:06.187Z,25.20
2022-11-29T21:46:33.715Z,25.45
2022-11-29T21:48:59.948Z,23.80
2022-11-29T21:51:26.223Z,25.40
2022-11-29T21:53:52.490Z,25.65
2022-11-29T21:56:18.707Z,26.02
2022-11-29T21:58:44.952Z,27.83
2022-11-29T22:01:16.102Z,26.50
2022-11-29T22:03:42.862Z,27.60
2022-11-29T22:06:12.980Z,28.10
2022-11-29T22:08:40.056Z,27.45
2022-11-29T22:11:07.418Z,26.88
2022-11-29T22:13:34.099Z,27.73
2022-11-29T22:16:04.210Z,27.92
2022-11-29T22:18:30.447Z,27.58
2022-11-29T22:21:00.765Z,27.17
2022-11-29T22:23:27.422Z,29.25
2022-11-29T22:25:53.760Z,27.25
2022-11-29T22:28:19.984Z,26.73
2022-11-29T22:30:46.201Z,28.65
2022-11-29T22:33:13.591Z,31.48
2022-11-29T22:35:43.864Z,25.15
2022-11-29T22:38:10.095Z,25.15
2022-11-29T22:40:36.311Z,27.70
2022-11-29T22:43:02.535Z,25.35
2022-11-29T22:45:28.778Z,24.17
2022-11-29T22:47:55.018Z,26.90
2022-11-29T22:50:21.249Z,24.23
2022-11-29T22:52:47.461Z,24.85
2022-11-29T22:55:13.683Z,28.42
2022-11-29T22:57:39.913Z,24.08
2022-11-29T23:00:06.461Z,24.15
2022-11-29T23:02:32.746Z,21.85
2022-11-29T23:04:59.057Z,23.20
2022-11-29T23:07:25.350Z,25.90
2022-11-29T23:09:51.604Z,26.67
2022-11-29T23:12:18.102Z,23.95
2022-11-29T23:14:44.413Z,24.70
2022-11-29T23:17:10.800Z,25.58
2022-11-29T23:19:37.062Z,24.77
2022-11-29T23:22:03.286Z,23.63
2022-11-29T23:24:29.542Z,22.45
2022-11-29T23:26:55.776Z,23.77
2022-11-29T23:29:22.082Z,25.35
2022-11-29T23:31:48.668Z,27.08
2022-11-29T23:34:15.078Z,28.45
2022-11-29T23:36:41.531Z,31.10
2022-11-29T23:39:07.819Z,27.95
2022-11-29T23:41:34.710Z,26.75
2022-11-29T23:46:27.229Z,24.58
2022-11-29T23:48:53.498Z,29.42
2022-11-29T23:51:19.954Z,27.13
2022-11-29T23:53:46.738Z,27.50
2022-11-29T23:56:14.161Z,28.95
2022-11-29T23:58:40.381Z,25.42
